createdAt,value
2023-03-30T00:01:22.667Z,3.85
2023-03-30T00:03:51.363Z,3.65
2023-03-30T00:06:23.130Z,3.40
2023-03-30T00:08:57.578Z,3.90
2023-03-30T00:11:27.433Z,5.97
2023-03-30T00:13:56.357Z,4.15
2023-03-30T00:16:24.650Z,4.10
2023-03-30T00:18:52.898Z,4.68
2023-03-30T00:21:24.549Z,4.85
2023-03-30T00:23:52.857Z,3.05
2023-03-30T00:26:36.654Z,6.28
2023-03-30T00:29:05.012Z,3.80
2023-03-30T00:31:33.675Z,3.50
2023-03-30T00:34:02.376Z,4.95
2023-03-30T00:36:37.137Z,4.18
2023-03-30T00:39:06.666Z,4.93
2023-03-30T00:41:37.289Z,4.72
2023-03-30T00:44:08.074Z,6.10
2023-03-30T00:46:36.518Z,6.63
2023-03-30T00:49:08.769Z,5.80
2023-03-30T00:51:41.707Z,6.20
2023-03-30T00:54:13.176Z,6.07
2023-03-30T00:56:42.188Z,4.15
2023-03-30T00:59:10.597Z,3.80
2023-03-30T01:01:40.321Z,3.47
2023-03-30T01:04:10.991Z,5.03
2023-03-30T01:06:43.631Z,4.57
2023-03-30T01:09:12.136Z,4.47
2023-03-30T01:11:40.588Z,3.78
2023-03-30T01:14:12.742Z,4.55
2023-03-30T01:16:48.949Z,5.03
2023-03-30T01:19:43.856Z,3.85
2023-03-30T01:22:38.530Z,5.78
2023-03-30T01:25:36.727Z,3.80
2023-03-30T01:28:17.888Z,5.68
2023-03-30T01:31:18.555Z,4.78
2023-03-30T01:34:08.093Z,4.38
2023-03-30T01:37:02.548Z,6.47
2023-03-30T01:42:14.088Z,4.43
2023-03-30T01:44:50.201Z,7.10
2023-03-30T01:47:24.153Z,5.10
2023-03-30T01:49:58.637Z,5.28
2023-03-30T01:52:32.058Z,4.68
2023-03-30T01:55:06.032Z,7.00
2023-03-30T01:57:38.827Z,5.72
2023-03-30T02:00:14.849Z,5.45
2023-03-30T02:02:47.221Z,5.63
2023-03-30T02:05:18.085Z,5.35
2023-03-30T02:07:51.508Z,6.53
2023-03-30T02:10:24.331Z,4.35
2023-03-30T02:12:54.145Z,7.20
2023-03-30T02:15:23.164Z,5.82
2023-03-30T02:17:51.806Z,7.60
2023-03-30T02:20:20.237Z,5.18
2023-03-30T02:22:49.464Z,4.85
2023-03-30T02:25:17.811Z,5.18
2023-03-30T02:27:48.414Z,3.42
2023-03-30T02:30:17.175Z,4.78
2023-03-30T02:32:51.970Z,5.13
2023-03-30T02:35:38.583Z,4.63
2023-03-30T02:38:32.694Z,5.18
2023-03-30T02:41:11.941Z,3.72
2023-03-30T02:43:48.624Z,7.47
2023-03-30T02:46:32.669Z,3.97
2023-03-30T02:49:14.269Z,3.58
2023-03-30T02:51:48.322Z,5.25
2023-03-30T02:54:25.671Z,5.53
2023-03-30T02:57:04.553Z,5.80
2023-03-30T02:59:42.392Z,4.10
2023-03-30T03:02:15.462Z,4.65
2023-03-30T03:04:46.543Z,3.97
2023-03-30T03:07:17.203Z,5.13
2023-03-30T03:09:45.564Z,5.25
2023-03-30T03:12:13.913Z,10.23
2023-03-30T03:14:45.438Z,6.85
2023-03-30T03:17:14.011Z,10.27
2023-03-30T03:19:42.381Z,11.27
2023-03-30T03:22:10.741Z,31.70
2023-03-30T03:24:39.781Z,35.60
2023-03-30T03:27:08.933Z,21.13
2023-03-30T03:29:37.556Z,15.70
2023-03-30T03:32:07.342Z,15.27
2023-03-30T03:34:35.769Z,10.38
2023-03-30T03:37:03.998Z,7.05
2023-03-30T03:39:33.090Z,4.57
2023-03-30T03:42:01.395Z,9.63
2023-03-30T03:44:29.692Z,5.25
2023-03-30T03:46:58.012Z,6.32
2023-03-30T03:49:27.714Z,7.03
2023-03-30T03:51:55.911Z,13.27
2023-03-30T03:54:24.304Z,9.70
2023-03-30T03:56:52.648Z,12.60
2023-03-30T03:59:21.037Z,7.75
2023-03-30T04:01:49.458Z,7.63
2023-03-30T04:04:17.679Z,6.45
2023-03-30T04:06:54.615Z,7.38
2023-03-30T04:09:23.275Z,6.70
2023-03-30T04:11:51.874Z,4.85
2023-03-30T04:14:20.064Z,4.60
2023-03-30T04:16:49.232Z,6.13
2023-03-30T04:19:17.688Z,5.13
2023-03-30T04:21:47.948Z,5.30
2023-03-30T04:24:16.267Z,7.22
2023-03-30T04:26:49.062Z,4.32
2023-03-30T04:29:17.964Z,6.93
2023-03-30T04:31:46.968Z,5.75
2023-03-30T04:34:15.217Z,6.03
2023-03-30T04:36:44.604Z,7.45
2023-03-30T04:39:20.816Z,5.38
2023-03-30T04:41:54.424Z,9.05
2023-03-30T04:44:22.454Z,6.45
2023-03-30T04:46:53.756Z,5.15
2023-03-30T04:49:22.058Z,8.23
2023-03-30T04:51:50.038Z,7.40
2023-03-30T04:54:19.518Z,5.88
2023-03-30T04:56:54.745Z,6.40
2023-03-30T04:59:28.462Z,10.38
2023-03-30T05:01:56.563Z,10.40
2023-03-30T05:04:24.925Z,8.18
2023-03-30T05:06:52.920Z,7.32
2023-03-30T05:09:22.951Z,10.82
2023-03-30T05:11:56.925Z,8.18
2023-03-30T05:14:24.917Z,9.43
2023-03-30T05:16:53.080Z,8.43
2023-03-30T05:19:22.127Z,9.18
2023-03-30T05:21:50.652Z,11.63
2023-03-30T05:24:19.009Z,8.68
2023-03-30T05:26:49.156Z,11.05
2023-03-30T05:29:17.868Z,9.40
2023-03-30T05:32:27.716Z,8.05
2023-03-30T05:34:56.273Z,12.55
2023-03-30T05:37:24.571Z,10.73
2023-03-30T05:39:52.728Z,7.55
2023-03-30T05:42:21.606Z,11.43
2023-03-30T05:44:49.895Z,8.25
2023-03-30T05:47:18.033Z,9.18
2023-03-30T05:49:54.933Z,8.60
2023-03-30T05:52:23.931Z,7.05
2023-03-30T05:54:51.951Z,9.20
2023-03-30T05:57:21.221Z,9.10
2023-03-30T05:59:49.496Z,8.15
2023-03-30T06:02:18.023Z,8.95
2023-03-30T06:04:47.770Z,8.20
2023-03-30T06:07:17.912Z,7.32
2023-03-30T06:09:46.236Z,9.65
2023-03-30T06:12:14.393Z,12.85
2023-03-30T06:14:42.839Z,10.32
2023-03-30T06:17:12.174Z,7.60
2023-03-30T06:19:40.479Z,11.65
2023-03-30T06:22:17.915Z,11.23
2023-03-30T06:24:45.961Z,10.23
2023-03-30T06:27:14.233Z,9.52
2023-03-30T06:29:43.572Z,20.35
2023-03-30T06:32:11.839Z,12.82
2023-03-30T06:34:39.814Z,11.77
2023-03-30T06:37:09.088Z,14.30
2023-03-30T06:39:38.587Z,10.65
2023-03-30T06:42:07.011Z,8.50
2023-03-30T06:44:35.276Z,7.35
2023-03-30T06:47:03.412Z,7.95
2023-03-30T06:49:31.395Z,10.30
2023-03-30T06:52:01.565Z,11.40
2023-03-30T06:54:31.874Z,9.13
2023-03-30T06:57:01.287Z,7.45
2023-03-30T06:59:29.198Z,7.47
2023-03-30T07:01:57.128Z,9.10
2023-03-30T07:04:25.168Z,10.10
2023-03-30T07:06:57.921Z,11.55
2023-03-30T07:09:26.272Z,8.60
2023-03-30T07:11:56.500Z,11.02
2023-03-30T07:14:26.010Z,10.27
2023-03-30T07:16:54.160Z,9.15
2023-03-30T07:19:22.069Z,10.57
2023-03-30T07:21:49.953Z,12.85
2023-03-30T07:24:17.892Z,10.82
2023-03-30T07:26:45.853Z,9.50
2023-03-30T07:29:15.436Z,12.10
2023-03-30T07:31:45.062Z,8.65
2023-03-30T07:34:13.011Z,11.23
2023-03-30T07:36:41.196Z,12.02
2023-03-30T07:39:09.110Z,8.10
2023-03-30T07:41:36.934Z,8.98
2023-03-30T07:44:04.812Z,8.20
2023-03-30T07:46:32.680Z,8.90
2023-03-30T07:49:01.906Z,8.13
2023-03-30T07:51:30.049Z,9.02
2023-03-30T07:53:57.897Z,13.90
2023-03-30T07:56:25.839Z,11.90
2023-03-30T07:58:54.226Z,9.77
2023-03-30T08:01:22.141Z,7.30
2023-03-30T08:03:50.848Z,9.32
2023-03-30T08:06:20.215Z,8.80
2023-03-30T08:08:48.276Z,10.15
2023-03-30T08:11:16.490Z,11.77
2023-03-30T08:13:44.744Z,7.40
2023-03-30T08:16:13.128Z,11.70
2023-03-30T08:18:42.377Z,7.80
2023-03-30T08:21:13.568Z,9.95
2023-03-30T08:23:42.881Z,12.70
2023-03-30T08:26:10.820Z,11.05
2023-03-30T08:28:39.283Z,7.78
2023-03-30T08:31:08.353Z,12.98
2023-03-30T08:33:36.415Z,11.85
2023-03-30T08:36:06.251Z,10.30
2023-03-30T08:38:36.805Z,11.70
2023-03-30T08:41:36.448Z,9.88
2023-03-30T08:44:10.559Z,11.73
2023-03-30T08:46:42.416Z,12.60
2023-03-30T08:49:17.903Z,7.65
2023-03-30T08:51:46.771Z,7.57
2023-03-30T08:54:17.467Z,9.75
2023-03-30T08:56:58.169Z,9.50
2023-03-30T08:59:36.720Z,8.93
2023-03-30T09:02:22.275Z,9.98
2023-03-30T09:05:05.981Z,7.28
2023-03-30T09:07:39.092Z,9.45
2023-03-30T09:10:13.222Z,9.57
2023-03-30T09:12:48.042Z,9.85
2023-03-30T09:15:19.508Z,9.98
2023-03-30T09:17:50.688Z,8.27
2023-03-30T09:20:24.885Z,8.45
2023-03-30T09:22:55.714Z,9.75
2023-03-30T09:25:31.131Z,9.13
2023-03-30T09:28:09.622Z,13.20
2023-03-30T09:30:41.962Z,11.18
2023-03-30T09:33:28.216Z,8.68
2023-03-30T09:36:12.780Z,8.02
2023-03-30T09:38:43.985Z,9.93
2023-03-30T09:41:33.034Z,11.65
2023-03-30T09:44:04.266Z,7.45
2023-03-30T09:46:32.944Z,7.63
2023-03-30T09:49:15.128Z,10.13
2023-03-30T09:51:56.820Z,8.43
2023-03-30T09:54:26.198Z,7.82
2023-03-30T09:56:57.092Z,10.85
2023-03-30T09:59:33.604Z,7.50
2023-03-30T10:02:18.699Z,6.00
2023-03-30T10:05:00.261Z,7.57
2023-03-30T10:07:30.960Z,5.45
2023-03-30T10:10:01.163Z,7.65
2023-03-30T10:12:30.889Z,11.20
2023-03-30T10:15:04.246Z,8.65
2023-03-30T10:17:33.241Z,6.35
2023-03-30T10:20:24.260Z,6.57
2023-03-30T10:22:54.794Z,6.57
2023-03-30T10:25:25.189Z,5.55
2023-03-30T10:27:58.251Z,6.05
2023-03-30T10:30:29.433Z,5.22
2023-03-30T10:33:00.814Z,5.75
2023-03-30T10:35:35.596Z,7.00
2023-03-30T10:38:05.277Z,5.80
2023-03-30T10:40:37.805Z,5.22
2023-03-30T10:43:12.063Z,6.97
2023-03-30T10:46:12.803Z,7.60
2023-03-30T10:49:00.361Z,5.07
2023-03-30T10:51:46.617Z,5.25
2023-03-30T10:54:21.616Z,7.13
2023-03-30T10:56:53.378Z,4.00
2023-03-30T10:59:38.375Z,5.00
2023-03-30T11:02:41.492Z,4.65
2023-03-30T11:05:15.682Z,5.15
2023-03-30T11:07:48.312Z,5.28
2023-03-30T11:10:29.396Z,7.18
2023-03-30T11:13:12.550Z,5.43
2023-03-30T11:18:56.879Z,5.53
2023-03-30T11:21:36.894Z,12.52
2023-03-30T11:24:29.799Z,5.85
2023-03-30T11:27:06.799Z,6.15
2023-03-30T11:29:43.214Z,5.75
2023-03-30T11:32:26.218Z,5.15
2023-03-30T11:35:15.220Z,4.15
2023-03-30T11:37:58.012Z,6.20
2023-03-30T11:40:28.630Z,4.70
2023-03-30T11:42:57.336Z,8.10
2023-03-30T11:45:44.982Z,4.72
2023-03-30T11:48:46.989Z,5.72
2023-03-30T11:51:39.121Z,5.40
2023-03-30T11:54:33.939Z,6.28
2023-03-30T11:57:11.249Z,7.43
2023-03-30T11:59:50.192Z,5.93
2023-03-30T12:02:28.174Z,5.47
2023-03-30T12:05:01.453Z,6.68
2023-03-30T12:07:44.009Z,5.75
2023-03-30T12:13:04.911Z,4.57
2023-03-30T12:15:44.125Z,5.25
2023-03-30T12:18:28.158Z,4.20
2023-03-30T12:23:55.698Z,4.55
2023-03-30T12:26:29.187Z,6.97
2023-03-30T12:32:07.795Z,6.60
2023-03-30T12:34:41.771Z,8.85
2023-03-30T12:37:17.160Z,6.85
2023-03-30T12:39:56.203Z,5.80
2023-03-30T12:42:35.595Z,4.57
2023-03-30T12:45:31.888Z,5.32
2023-03-30T12:48:29.617Z,7.47
2023-03-30T12:51:13.353Z,5.00
2023-03-30T12:54:19.561Z,6.47
2023-03-30T12:56:58.060Z,5.72
2023-03-30T12:59:44.544Z,6.85
2023-03-30T13:02:48.018Z,7.47
2023-03-30T13:05:26.702Z,4.55
2023-03-30T13:07:57.871Z,6.13
2023-03-30T13:10:52.953Z,4.03
2023-03-30T13:13:47.700Z,6.43
2023-03-30T13:16:16.168Z,5.10
2023-03-30T13:18:57.651Z,3.55
2023-03-30T13:21:27.216Z,6.60
2023-03-30T13:24:07.603Z,7.57
2023-03-30T13:26:45.140Z,6.43
2023-03-30T13:29:20.161Z,4.95
2023-03-30T13:32:14.775Z,3.97
2023-03-30T13:35:08.143Z,4.32
2023-03-30T13:37:54.960Z,3.90
2023-03-30T13:40:40.305Z,5.03
2023-03-30T13:43:19.948Z,3.97
2023-03-30T13:46:00.430Z,4.20
2023-03-30T13:48:52.728Z,5.88
2023-03-30T13:51:35.155Z,4.75
2023-03-30T13:54:06.643Z,3.00
2023-03-30T13:56:45.171Z,2.58
2023-03-30T13:59:18.874Z,3.97
2023-03-30T14:04:37.364Z,3.97
2023-03-30T14:07:25.265Z,3.80
2023-03-30T14:10:12.746Z,4.70
2023-03-30T14:13:07.280Z,4.07
2023-03-30T14:15:55.510Z,1.88
2023-03-30T14:18:50.190Z,1.23
2023-03-30T14:21:28.644Z,2.38
2023-03-30T14:23:57.064Z,1.65
2023-03-30T14:26:28.080Z,2.42
2023-03-30T14:28:57.804Z,2.00
2023-03-30T14:31:30.844Z,0.88
2023-03-30T14:34:05.420Z,1.80
2023-03-30T14:36:33.796Z,1.65
2023-03-30T14:39:03.653Z,1.48
2023-03-30T14:44:51.185Z,2.22
2023-03-30T14:47:41.558Z,3.00
2023-03-30T14:50:50.754Z,1.70
2023-03-30T14:53:29.231Z,3.38
2023-03-30T14:56:05.154Z,4.53
2023-03-30T14:59:00.319Z,3.15
2023-03-30T15:01:52.621Z,2.22
2023-03-30T15:04:33.628Z,2.63
2023-03-30T15:07:12.065Z,4.75
2023-03-30T15:10:12.386Z,2.95
2023-03-30T15:12:47.710Z,3.08
2023-03-30T15:15:34.832Z,4.45
2023-03-30T15:18:36.799Z,5.30
2023-03-30T15:21:08.435Z,1.90
2023-03-30T15:23:42.655Z,2.00
2023-03-30T15:26:25.248Z,2.75
2023-03-30T15:28:57.946Z,2.75
2023-03-30T15:31:30.322Z,2.60
2023-03-30T15:34:02.174Z,5.38
2023-03-30T15:36:48.013Z,2.97
2023-03-30T15:39:26.063Z,2.42
2023-03-30T15:42:05.677Z,2.15
2023-03-30T15:44:37.698Z,3.95
2023-03-30T15:47:25.725Z,3.38
2023-03-30T15:49:56.571Z,2.78
2023-03-30T15:52:33.362Z,3.38
2023-03-30T15:55:09.941Z,2.70
2023-03-30T15:57:45.356Z,4.82
2023-03-30T16:00:22.052Z,2.67
2023-03-30T16:03:04.273Z,2.95
2023-03-30T16:05:35.209Z,4.25
2023-03-30T16:08:05.012Z,2.78
2023-03-30T16:10:35.300Z,7.45
2023-03-30T16:13:03.311Z,4.95
2023-03-30T16:15:41.008Z,6.90
2023-03-30T16:18:11.859Z,5.60
2023-03-30T16:20:39.975Z,4.65
2023-03-30T16:23:09.384Z,2.83
2023-03-30T16:25:45.332Z,4.03
2023-03-30T16:28:17.466Z,2.97
2023-03-30T16:30:47.953Z,4.88
2023-03-30T16:33:16.393Z,3.70
2023-03-30T16:35:47.616Z,4.30
2023-03-30T16:38:18.838Z,3.05
2023-03-30T16:40:51.465Z,3.00
2023-03-30T16:43:19.546Z,3.05
2023-03-30T16:45:47.567Z,3.00
2023-03-30T16:48:18.518Z,4.38
2023-03-30T16:50:48.046Z,4.78
2023-03-30T16:53:16.527Z,2.40
2023-03-30T16:55:49.967Z,4.40
2023-03-30T16:58:17.876Z,3.58
2023-03-30T17:00:47.839Z,2.92
2023-03-30T17:03:16.586Z,3.00
2023-03-30T17:05:48.322Z,4.75
2023-03-30T17:08:21.710Z,11.23
2023-03-30T17:10:52.642Z,10.13
2023-03-30T17:13:20.946Z,33.40
2023-03-30T17:15:48.841Z,15.25
2023-03-30T17:18:21.412Z,8.52
2023-03-30T17:20:51.941Z,10.50
2023-03-30T17:23:22.093Z,9.48
2023-03-30T17:25:53.260Z,7.85
2023-03-30T17:28:26.256Z,5.78
2023-03-30T17:30:58.656Z,6.40
2023-03-30T17:33:27.149Z,5.30
2023-03-30T17:35:57.233Z,5.95
2023-03-30T17:38:27.131Z,5.00
2023-03-30T17:40:58.281Z,3.22
2023-03-30T17:43:26.362Z,3.63
2023-03-30T17:45:58.433Z,3.65
2023-03-30T17:48:26.380Z,5.55
2023-03-30T17:50:54.250Z,7.18
2023-03-30T17:53:23.390Z,12.00
2023-03-30T17:55:53.027Z,5.65
2023-03-30T17:58:36.685Z,4.40
2023-03-30T18:01:07.396Z,3.88
2023-03-30T18:03:38.568Z,3.78
2023-03-30T18:06:07.243Z,16.25
2023-03-30T18:08:36.253Z,8.60
2023-03-30T18:11:04.952Z,4.22
2023-03-30T18:13:34.962Z,3.45
2023-03-30T18:16:03.515Z,16.20
2023-03-30T18:18:32.660Z,18.48
2023-03-30T18:21:03.715Z,15.93
2023-03-30T18:23:33.610Z,15.35
2023-03-30T18:26:10.248Z,9.10
2023-03-30T18:28:43.754Z,8.30
2023-03-30T18:31:12.805Z,6.72
2023-03-30T18:33:41.241Z,4.35
2023-03-30T18:36:12.566Z,6.65
2023-03-30T18:38:41.310Z,7.55
2023-03-30T18:41:11.539Z,5.32
2023-03-30T18:43:41.648Z,9.25
2023-03-30T18:46:11.362Z,5.65
2023-03-30T18:48:40.608Z,6.47
2023-03-30T18:51:08.852Z,6.00
2023-03-30T18:53:37.546Z,6.55
2023-03-30T18:56:06.737Z,5.82
2023-03-30T18:58:41.491Z,4.53
2023-03-30T19:01:12.924Z,13.02
2023-03-30T19:03:41.915Z,7.00
2023-03-30T19:06:11.769Z,7.53
2023-03-30T19:08:43.686Z,4.30
2023-03-30T19:11:11.980Z,4.20
2023-03-30T19:13:40.182Z,4.80
2023-03-30T19:16:09.223Z,4.13
2023-03-30T19:18:38.911Z,5.45
2023-03-30T19:21:07.525Z,6.50
2023-03-30T19:23:36.095Z,5.45
2023-03-30T19:29:03.197Z,5.07
2023-03-30T19:31:31.509Z,4.63
2023-03-30T19:34:01.181Z,3.40
2023-03-30T19:36:29.617Z,4.68
2023-03-30T19:38:57.824Z,5.40
2023-03-30T19:41:26.698Z,4.82
2023-03-30T19:43:54.897Z,4.70
2023-03-30T19:46:23.147Z,5.85
2023-03-30T19:48:53.253Z,4.68
2023-03-30T19:51:23.108Z,4.55
2023-03-30T19:54:00.231Z,3.83
2023-03-30T19:56:28.485Z,4.13
2023-03-30T19:59:00.723Z,3.55
2023-03-30T20:01:29.079Z,5.00
2023-03-30T20:03:59.858Z,5.65
2023-03-30T20:06:29.949Z,8.60
2023-03-30T20:08:58.175Z,10.73
2023-03-30T20:11:26.396Z,7.78
2023-03-30T20:13:55.509Z,4.57
2023-03-30T20:16:28.371Z,4.13
2023-03-30T20:18:57.799Z,3.93
2023-03-30T20:21:27.373Z,5.90
2023-03-30T20:23:58.836Z,3.22
2023-03-30T20:26:29.320Z,4.13
2023-03-30T20:28:57.901Z,5.93
2023-03-30T20:31:26.270Z,4.53
2023-03-30T20:33:54.604Z,3.13
2023-03-30T20:36:25.934Z,7.00
2023-03-30T20:38:55.132Z,4.97
2023-03-30T20:41:40.630Z,5.97
2023-03-30T20:44:32.519Z,7.93
2023-03-30T20:47:16.040Z,5.85
2023-03-30T20:49:50.497Z,5.93
2023-03-30T20:52:18.949Z,7.20
2023-03-30T20:55:12.690Z,4.85
2023-03-30T20:57:43.005Z,9.40
2023-03-30T21:00:12.489Z,5.57
2023-03-30T21:02:40.792Z,4.57
2023-03-30T21:05:09.396Z,4.53
2023-03-30T21:07:42.241Z,5.72
2023-03-30T21:10:10.850Z,4.83
2023-03-30T21:12:39.117Z,2.58
2023-03-30T21:15:09.399Z,2.60
2023-03-30T21:17:37.749Z,2.38
2023-03-30T21:20:08.094Z,3.00
2023-03-30T21:22:36.723Z,3.08
2023-03-30T21:25:05.417Z,4.85
2023-03-30T21:27:33.620Z,3.78
2023-03-30T21:30:01.879Z,4.80
2023-03-30T21:32:34.686Z,4.03
2023-03-30T21:35:15.562Z,2.67
2023-03-30T21:37:43.782Z,4.90
2023-03-30T21:40:12.650Z,3.28
2023-03-30T21:42:40.908Z,3.97
2023-03-30T21:45:11.630Z,3.45
2023-03-30T21:47:41.603Z,4.32
2023-03-30T21:50:10.178Z,2.50
2023-03-30T21:52:38.422Z,3.63
2023-03-30T21:55:07.092Z,3.53
2023-03-30T21:57:35.316Z,2.97
2023-03-30T22:00:05.294Z,1.58
2023-03-30T22:02:33.661Z,4.68
2023-03-30T22:05:06.296Z,4.15
2023-03-30T22:07:34.544Z,4.85
2023-03-30T22:10:03.551Z,3.70
2023-03-30T22:12:33.814Z,3.85
2023-03-30T22:15:02.077Z,4.35
2023-03-30T22:17:35.250Z,2.72
2023-03-30T22:20:03.576Z,6.30
2023-03-30T22:22:33.262Z,5.65
2023-03-30T22:25:01.483Z,4.07
2023-03-30T22:27:29.689Z,2.65
2023-03-30T22:29:57.896Z,4.78
2023-03-30T22:32:26.199Z,5.80
2023-03-30T22:34:54.496Z,4.38
2023-03-30T22:37:22.693Z,4.10
2023-03-30T22:39:52.280Z,4.90
2023-03-30T22:42:20.739Z,3.83
2023-03-30T22:44:50.313Z,4.03
2023-03-30T22:47:18.545Z,3.53
2023-03-30T22:49:47.261Z,2.78
2023-03-30T22:52:15.503Z,4.18
2023-03-30T22:54:43.791Z,4.07
2023-03-30T22:57:13.503Z,4.22
2023-03-30T22:59:42.363Z,5.35
2023-03-30T23:02:10.584Z,4.65
2023-03-30T23:04:40.008Z,3.63
2023-03-30T23:07:08.793Z,2.75
2023-03-30T23:09:38.683Z,3.00
2023-03-30T23:12:08.377Z,4.45
2023-03-30T23:14:39.252Z,2.38
2023-03-30T23:17:25.511Z,4.13
2023-03-30T23:19:54.062Z,3.60
2023-03-30T23:22:22.361Z,6.47
2023-03-30T23:24:50.918Z,4.15
2023-03-30T23:27:19.538Z,1.92
2023-03-30T23:29:49.156Z,3.90
2023-03-30T23:32:17.446Z,4.82
2023-03-30T23:34:46.676Z,2.95
2023-03-30T23:37:15.100Z,3.78
2023-03-30T23:39:43.380Z,4.03
2023-03-30T23:42:11.653Z,4.93
2023-03-30T23:44:39.885Z,4.28
2023-03-30T23:47:09.537Z,2.30
2023-03-30T23:49:37.819Z,3.50
2023-03-30T23:52:06.321Z,2.55
2023-03-30T23:54:37.281Z,3.75
2023-03-30T23:57:07.223Z,2.80
2023-03-30T23:59:37.814Z,3.38
